sensor_id;sensor_type;location;lat;lon;timestamp;temperature;humidity
6468;DHT22;3267;48.794;9.928;2023-04-08T04:03:36;11.90;69.60
6468;DHT22;3267;48.794;9.928;2023-04-08T04:06:02;12.20;70.20
6468;DHT22;3267;48.794;9.928;2023-04-08T04:08:31;14.10;72.20
6468;DHT22;3267;48.794;9.928;2023-04-08T04:10:58;11.80;69.60
6468;DHT22;3267;48.794;9.928;2023-04-08T04:13:24;11.80;69.60
6468;DHT22;3267;48.794;9.928;2023-04-08T04:15:49;13.30;70.90
6468;DHT22;3267;48.794;9.928;2023-04-08T04:18:15;11.80;69.50
6468;DHT22;3267;48.794;9.928;2023-04-08T04:20:41;14.40;73.20
6468;DHT22;3267;48.794;9.928;2023-04-08T04:23:07;13.90;71.80
6468;DHT22;3267;48.794;9.928;2023-04-08T04:25:33;11.70;69.50
6468;DHT22;3267;48.794;9.928;2023-04-08T04:27:59;11.70;69.50
6468;DHT22;3267;48.794;9.928;2023-04-08T04:30:26;11.60;69.50
6468;DHT22;3267;48.794;9.928;2023-04-08T04:32:52;11.60;69.50
6468;DHT22;3267;48.794;9.928;2023-04-08T04:35:17;11.60;69.30
6468;DHT22;3267;48.794;9.928;2023-04-08T04:37:43;11.60;69.60
6468;DHT22;3267;48.794;9.928;2023-04-08T04:40:09;11.60;69.90
6468;DHT22;3267;48.794;9.928;2023-04-08T04:42:35;11.60;69.90
6468;DHT22;3267;48.794;9.928;2023-04-08T04:45:00;11.60;70.00
6468;DHT22;3267;48.794;9.928;2023-04-08T04:47:26;11.50;69.60
6468;DHT22;3267;48.794;9.928;2023-04-08T04:49:52;11.50;69.70
6468;DHT22;3267;48.794;9.928;2023-04-08T04:52:17;11.50;70.10
6468;DHT22;3267;48.794;9.928;2023-04-08T04:54:43;11.40;70.10
6468;DHT22;3267;48.794;9.928;2023-04-08T04:57:09;11.40;70.40
6468;DHT22;3267;48.794;9.928;2023-04-08T04:59:36;13.10;73.00
6468;DHT22;3267;48.794;9.928;2023-04-08T05:02:01;11.30;71.20
6468;DHT22;3267;48.794;9.928;2023-04-08T05:04:27;11.30;71.00
6468;DHT22;3267;48.794;9.928;2023-04-08T05:06:53;11.40;70.50
6468;DHT22;3267;48.794;9.928;2023-04-08T05:09:18;11.30;70.90
6468;DHT22;3267;48.794;9.928;2023-04-08T05:11:44;11.30;70.90
6468;DHT22;3267;48.794;9.928;2023-04-08T05:14:10;11.30;70.60
6468;DHT22;3267;48.794;9.928;2023-04-08T05:16:36;11.30;70.80
6468;DHT22;3267;48.794;9.928;2023-04-08T05:19:03;11.30;70.80
6468;DHT22;3267;48.794;9.928;2023-04-08T05:21:28;11.30;70.70
6468;DHT22;3267;48.794;9.928;2023-04-08T05:23:54;11.30;70.80
6468;DHT22;3267;48.794;9.928;2023-04-08T05:26:20;11.30;70.90
6468;DHT22;3267;48.794;9.928;2023-04-08T05:28:47;11.30;70.90
6468;DHT22;3267;48.794;9.928;2023-04-08T05:31:15;11.30;70.70
6468;DHT22;3267;48.794;9.928;2023-04-08T05:33:41;11.30;70.90
6468;DHT22;3267;48.794;9.928;2023-04-08T05:36:06;11.30;71.00
6468;DHT22;3267;48.794;9.928;2023-04-08T05:38:32;11.30;70.70
6468;DHT22;3267;48.794;9.928;2023-04-08T05:40:58;11.30;71.00
6468;DHT22;3267;48.794;9.928;2023-04-08T05:43:23;11.30;71.40
6468;DHT22;3267;48.794;9.928;2023-04-08T05:45:49;11.30;71.40
6468;DHT22;3267;48.794;9.928;2023-04-08T05:48:15;11.20;71.50
6468;DHT22;3267;48.794;9.928;2023-04-08T05:50:41;11.20;71.60
6468;DHT22;3267;48.794;9.928;2023-04-08T05:53:08;11.20;71.70
6468;DHT22;3267;48.794;9.928;2023-04-08T05:55:34;11.20;72.20
6468;DHT22;3267;48.794;9.928;2023-04-08T05:58:00;11.10;72.30
6468;DHT22;3267;48.794;9.928;2023-04-08T06:00:25;11.10;72.90
6468;DHT22;3267;48.794;9.928;2023-04-08T06:02:51;11.10;72.80
6468;DHT22;3267;48.794;9.928;2023-04-08T06:05:17;11.10;73.10
6468;DHT22;3267;48.794;9.928;2023-04-08T06:07:43;11.00;73.50
6468;DHT22;3267;48.794;9.928;2023-04-08T06:10:09;11.00;74.70
6468;DHT22;3267;48.794;9.928;2023-04-08T06:12:36;11.00;74.00
6468;DHT22;3267;48.794;9.928;2023-04-08T06:15:03;11.00;74.30
6468;DHT22;3267;48.794;9.928;2023-04-08T06:17:30;11.00;74.30
6468;DHT22;3267;48.794;9.928;2023-04-08T06:19:56;11.00;74.20
6468;DHT22;3267;48.794;9.928;2023-04-08T06:22:21;11.00;74.60
6468;DHT22;3267;48.794;9.928;2023-04-08T06:24:47;11.00;74.70
6468;DHT22;3267;48.794;9.928;2023-04-08T06:27:13;11.00;74.60
6468;DHT22;3267;48.794;9.928;2023-04-08T06:29:39;11.00;74.20
6468;DHT22;3267;48.794;9.928;2023-04-08T06:32:05;11.10;73.70
6468;DHT22;3267;48.794;9.928;2023-04-08T06:34:31;11.20;73.80
6468;DHT22;3267;48.794;9.928;2023-04-08T06:36:57;11.10;74.40
6468;DHT22;3267;48.794;9.928;2023-04-08T06:39:22;11.10;73.90
6468;DHT22;3267;48.794;9.928;2023-04-08T06:41:48;11.10;73.90
6468;DHT22;3267;48.794;9.928;2023-04-08T06:44:14;11.10;74.20
6468;DHT22;3267;48.794;9.928;2023-04-08T06:46:40;11.10;73.80
6468;DHT22;3267;48.794;9.928;2023-04-08T06:49:05;11.10;73.90
6468;DHT22;3267;48.794;9.928;2023-04-08T06:51:31;11.20;73.80
6468;DHT22;3267;48.794;9.928;2023-04-08T06:53:57;11.20;73.80
6468;DHT22;3267;48.794;9.928;2023-04-08T06:56:23;11.20;74.00
6468;DHT22;3267;48.794;9.928;2023-04-08T06:58:51;11.20;74.40
6468;DHT22;3267;48.794;9.928;2023-04-08T07:01:16;11.20;74.20
6468;DHT22;3267;48.794;9.928;2023-04-08T07:03:42;11.30;74.20
6468;DHT22;3267;48.794;9.928;2023-04-08T07:06:08;11.30;73.80
6468;DHT22;3267;48.794;9.928;2023-04-08T07:08:34;13.30;75.70
6468;DHT22;3267;48.794;9.928;2023-04-08T07:11:00;11.30;73.80
6468;DHT22;3267;48.794;9.928;2023-04-08T07:13:27;11.40;73.10
6468;DHT22;3267;48.794;9.928;2023-04-08T07:15:52;11.50;73.30
6468;DHT22;3267;48.794;9.928;2023-04-08T07:18:18;11.50;72.90
6468;DHT22;3267;48.794;9.928;2023-04-08T07:20:50;12.70;74.40
6468;DHT22;3267;48.794;9.928;2023-04-08T07:23:15;12.20;74.20
6468;DHT22;3267;48.794;9.928;2023-04-08T07:25:41;11.60;73.40
6468;DHT22;3267;48.794;9.928;2023-04-08T07:28:07;11.60;73.40
6468;DHT22;3267;48.794;9.928;2023-04-08T07:30:32;11.60;73.10
6468;DHT22;3267;48.794;9.928;2023-04-08T07:32:58;11.70;73.40
6468;DHT22;3267;48.794;9.928;2023-04-08T07:35:24;11.70;73.40
6468;DHT22;3267;48.794;9.928;2023-04-08T07:37:50;12.00;74.00
6468;DHT22;3267;48.794;9.928;2023-04-08T07:40:17;12.10;74.10
6468;DHT22;3267;48.794;9.928;2023-04-08T07:42:43;11.80;73.30
6468;DHT22;3267;48.794;9.928;2023-04-08T07:45:09;11.80;73.50
6468;DHT22;3267;48.794;9.928;2023-04-08T07:47:35;11.80;73.20
6468;DHT22;3267;48.794;9.928;2023-04-08T07:50:02;11.90;73.20
6468;DHT22;3267;48.794;9.928;2023-04-08T07:52:29;11.90;73.00
6468;DHT22;3267;48.794;9.928;2023-04-08T07:54:54;12.00;73.20
6468;DHT22;3267;48.794;9.928;2023-04-08T07:57:20;11.90;72.90
6468;DHT22;3267;48.794;9.928;2023-04-08T07:59:46;13.30;74.20
6468;DHT22;3267;48.794;9.928;2023-04-08T08:02:12;12.00;72.90
6468;DHT22;3267;48.794;9.928;2023-04-08T08:04:37;14.10;74.70
6468;DHT22;3267;48.794;9.928;2023-04-08T08:07:03;12.10;72.50
6468;DHT22;3267;48.794;9.928;2023-04-08T08:09:28;12.20;72.10
6468;DHT22;3267;48.794;9.928;2023-04-08T08:11:54;12.20;71.60
6468;DHT22;3267;48.794;9.928;2023-04-08T08:14:20;12.20;71.70
6468;DHT22;3267;48.794;9.928;2023-04-08T08:16:46;13.90;73.50
6468;DHT22;3267;48.794;9.928;2023-04-08T08:19:12;12.30;71.70
6468;DHT22;3267;48.794;9.928;2023-04-08T08:21:39;12.40;71.50
6468;DHT22;3267;48.794;9.928;2023-04-08T08:24:04;14.20;73.20
6468;DHT22;3267;48.794;9.928;2023-04-08T08:26:33;12.40;71.50
6468;DHT22;3267;48.794;9.928;2023-04-08T08:28:58;12.40;72.00
6468;DHT22;3267;48.794;9.928;2023-04-08T08:31:24;13.90;72.60
6468;DHT22;3267;48.794;9.928;2023-04-08T08:33:50;14.10;72.80
6468;DHT22;3267;48.794;9.928;2023-04-08T08:36:15;12.50;71.10
6468;DHT22;3267;48.794;9.928;2023-04-08T08:38:42;12.90;71.50
6468;DHT22;3267;48.794;9.928;2023-04-08T08:41:07;12.60;71.20
6468;DHT22;3267;48.794;9.928;2023-04-08T08:43:33;12.60;71.20
6468;DHT22;3267;48.794;9.928;2023-04-08T08:46:00;12.70;71.10
6468;DHT22;3267;48.794;9.928;2023-04-08T08:48:26;12.80;71.30
6468;DHT22;3267;48.794;9.928;2023-04-08T08:50:51;14.80;72.90
6468;DHT22;3267;48.794;9.928;2023-04-08T08:53:17;12.90;70.60
6468;DHT22;3267;48.794;9.928;2023-04-08T08:55:44;13.00;70.50
6468;DHT22;3267;48.794;9.928;2023-04-08T08:58:09;13.00;70.20
6468;DHT22;3267;48.794;9.928;2023-04-08T09:00:41;13.10;70.10
6468;DHT22;3267;48.794;9.928;2023-04-08T09:03:20;13.10;69.70
6468;DHT22;3267;48.794;9.928;2023-04-08T09:05:47;13.20;69.40
6468;DHT22;3267;48.794;9.928;2023-04-08T09:08:33;13.10;68.80
6468;DHT22;3267;48.794;9.928;2023-04-08T09:11:14;13.10;68.00
6468;DHT22;3267;48.794;9.928;2023-04-08T09:13:40;13.00;68.20
6468;DHT22;3267;48.794;9.928;2023-04-08T09:16:11;13.10;68.60
6468;DHT22;3267;48.794;9.928;2023-04-08T09:18:37;13.10;68.60
6468;DHT22;3267;48.794;9.928;2023-04-08T09:21:04;13.20;69.20
6468;DHT22;3267;48.794;9.928;2023-04-08T09:30:53;13.10;67.60
6468;DHT22;3267;48.794;9.928;2023-04-08T09:33:19;13.10;67.40
6468;DHT22;3267;48.794;9.928;2023-04-08T09:35:45;13.00;67.30
6468;DHT22;3267;48.794;9.928;2023-04-08T09:38:11;13.00;67.40
6468;DHT22;3267;48.794;9.928;2023-04-08T09:40:37;13.00;67.20
6468;DHT22;3267;48.794;9.928;2023-04-08T09:43:04;12.90;66.70
6468;DHT22;3267;48.794;9.928;2023-04-08T09:45:33;12.90;66.60
6468;DHT22;3267;48.794;9.928;2023-04-08T09:48:09;12.80;66.00
6468;DHT22;3267;48.794;9.928;2023-04-08T09:50:42;12.80;65.90
6468;DHT22;3267;48.794;9.928;2023-04-08T09:53:21;12.90;65.60
6468;DHT22;3267;48.794;9.928;2023-04-08T09:55:54;12.90;65.50
6468;DHT22;3267;48.794;9.928;2023-04-08T09:58:38;12.90;65.10
6468;DHT22;3267;48.794;9.928;2023-04-08T10:01:04;12.80;64.50
6468;DHT22;3267;48.794;9.928;2023-04-08T10:03:42;12.80;64.60
6468;DHT22;3267;48.794;9.928;2023-04-08T10:06:10;12.80;64.30
6468;DHT22;3267;48.794;9.928;2023-04-08T10:08:36;12.80;64.30
6468;DHT22;3267;48.794;9.928;2023-04-08T10:11:02;12.80;64.40
6468;DHT22;3267;48.794;9.928;2023-04-08T10:13:29;12.60;64.40
6468;DHT22;3267;48.794;9.928;2023-04-08T10:16:17;12.70;64.40
6468;DHT22;3267;48.794;9.928;2023-04-08T10:18:44;12.80;64.40
6468;DHT22;3267;48.794;9.928;2023-04-08T10:23:58;12.90;64.10
6468;DHT22;3267;48.794;9.928;2023-04-08T10:26:50;12.80;64.00
6468;DHT22;3267;48.794;9.928;2023-04-08T10:31:42;12.80;64.30
6468;DHT22;3267;48.794;9.928;2023-04-08T10:36:42;12.90;64.40
6468;DHT22;3267;48.794;9.928;2023-04-08T10:39:08;12.90;64.50
6468;DHT22;3267;48.794;9.928;2023-04-08T10:41:40;12.90;64.50
6468;DHT22;3267;48.794;9.928;2023-04-08T10:44:21;13.00;64.90
6468;DHT22;3267;48.794;9.928;2023-04-08T10:46:48;13.00;64.50
6468;DHT22;3267;48.794;9.928;2023-04-08T10:49:15;13.00;64.50
6468;DHT22;3267;48.794;9.928;2023-04-08T10:51:42;14.40;66.00
6468;DHT22;3267;48.794;9.928;2023-04-08T10:54:15;13.00;64.30
6468;DHT22;3267;48.794;9.928;2023-04-08T10:56:46;13.00;64.20
6468;DHT22;3267;48.794;9.928;2023-04-08T10:59:13;12.90;63.70
6468;DHT22;3267;48.794;9.928;2023-04-08T11:01:42;12.90;63.90
6468;DHT22;3267;48.794;9.928;2023-04-08T11:04:16;13.00;64.20
6468;DHT22;3267;48.794;9.928;2023-04-08T11:06:45;13.10;64.40
6468;DHT22;3267;48.794;9.928;2023-04-08T11:09:12;13.10;64.20
6468;DHT22;3267;48.794;9.928;2023-04-08T11:11:41;13.20;63.70
6468;DHT22;3267;48.794;9.928;2023-04-08T11:14:07;13.20;63.50
6468;DHT22;3267;48.794;9.928;2023-04-08T11:16:37;15.10;65.70
6468;DHT22;3267;48.794;9.928;2023-04-08T11:19:03;13.20;63.60
6468;DHT22;3267;48.794;9.928;2023-04-08T11:21:31;13.20;63.30
6468;DHT22;3267;48.794;9.928;2023-04-08T11:23:57;13.20;63.30
6468;DHT22;3267;48.794;9.928;2023-04-08T11:26:24;13.10;63.00
6468;DHT22;3267;48.794;9.928;2023-04-08T11:28:50;13.10;62.70
6468;DHT22;3267;48.794;9.928;2023-04-08T11:31:17;13.30;63.20
6468;DHT22;3267;48.794;9.928;2023-04-08T11:33:45;13.10;62.50
6468;DHT22;3267;48.794;9.928;2023-04-08T11:36:11;13.10;62.50
6468;DHT22;3267;48.794;9.928;2023-04-08T11:38:38;13.10;62.70
6468;DHT22;3267;48.794;9.928;2023-04-08T11:41:08;14.70;65.50
6468;DHT22;3267;48.794;9.928;2023-04-08T11:43:34;13.20;62.90
6468;DHT22;3267;48.794;9.928;2023-04-08T11:46:10;13.20;62.70
6468;DHT22;3267;48.794;9.928;2023-04-08T11:48:37;14.20;63.70
6468;DHT22;3267;48.794;9.928;2023-04-08T11:51:04;13.20;62.50
6468;DHT22;3267;48.794;9.928;2023-04-08T11:53:30;13.20;62.20
6468;DHT22;3267;48.794;9.928;2023-04-08T11:55:55;13.10;62.20
6468;DHT22;3267;48.794;9.928;2023-04-08T11:58:22;13.10;62.30
6468;DHT22;3267;48.794;9.928;2023-04-08T12:00:47;13.10;62.60
6468;DHT22;3267;48.794;9.928;2023-04-08T12:03:13;13.10;62.20
6468;DHT22;3267;48.794;9.928;2023-04-08T12:05:39;13.00;62.20
6468;DHT22;3267;48.794;9.928;2023-04-08T12:08:05;13.00;62.40
6468;DHT22;3267;48.794;9.928;2023-04-08T12:10:31;13.00;62.30
6468;DHT22;3267;48.794;9.928;2023-04-08T12:12:57;13.00;62.40
6468;DHT22;3267;48.794;9.928;2023-04-08T12:15:22;12.90;62.50
6468;DHT22;3267;48.794;9.928;2023-04-08T12:17:48;12.90;62.50
6468;DHT22;3267;48.794;9.928;2023-04-08T12:20:13;12.90;62.50
6468;DHT22;3267;48.794;9.928;2023-04-08T12:28:31;12.80;62.60
6468;DHT22;3267;48.794;9.928;2023-04-08T12:30:56;13.10;63.20
6468;DHT22;3267;48.794;9.928;2023-04-08T12:33:22;15.30;65.50
6468;DHT22;3267;48.794;9.928;2023-04-08T12:35:47;12.80;63.00
6468;DHT22;3267;48.794;9.928;2023-04-08T12:38:13;12.90;63.10
6468;DHT22;3267;48.794;9.928;2023-04-08T12:40:39;12.90;63.10
6468;DHT22;3267;48.794;9.928;2023-04-08T12:43:04;12.90;63.40
6468;DHT22;3267;48.794;9.928;2023-04-08T12:45:30;13.00;63.40
6468;DHT22;3267;48.794;9.928;2023-04-08T12:47:56;13.00;63.40
6468;DHT22;3267;48.794;9.928;2023-04-08T12:50:21;13.00;63.20
6468;DHT22;3267;48.794;9.928;2023-04-08T12:52:48;13.00;63.50
6468;DHT22;3267;48.794;9.928;2023-04-08T12:55:13;13.00;63.30
6468;DHT22;3267;48.794;9.928;2023-04-08T12:57:39;13.00;63.10
6468;DHT22;3267;48.794;9.928;2023-04-08T13:00:05;13.00;63.20
6468;DHT22;3267;48.794;9.928;2023-04-08T13:02:31;12.90;63.10
6468;DHT22;3267;48.794;9.928;2023-04-08T13:04:58;12.90;63.20
6468;DHT22;3267;48.794;9.928;2023-04-08T13:07:23;12.90;63.10
6468;DHT22;3267;48.794;9.928;2023-04-08T13:09:49;12.80;63.20
6468;DHT22;3267;48.794;9.928;2023-04-08T13:12:15;14.40;65.10
6468;DHT22;3267;48.794;9.928;2023-04-08T13:14:40;12.90;63.40
6468;DHT22;3267;48.794;9.928;2023-04-08T13:17:06;13.40;63.90
6468;DHT22;3267;48.794;9.928;2023-04-08T13:19:32;12.90;63.50
6468;DHT22;3267;48.794;9.928;2023-04-08T13:21:57;12.90;63.60
6468;DHT22;3267;48.794;9.928;2023-04-08T13:24:23;13.00;63.70
6468;DHT22;3267;48.794;9.928;2023-04-08T13:26:49;13.10;63.80
6468;DHT22;3267;48.794;9.928;2023-04-08T13:29:15;13.10;63.70
6468;DHT22;3267;48.794;9.928;2023-04-08T13:31:41;14.60;65.10
6468;DHT22;3267;48.794;9.928;2023-04-08T13:34:07;13.20;63.50
6468;DHT22;3267;48.794;9.928;2023-04-08T13:36:32;13.20;63.40
6468;DHT22;3267;48.794;9.928;2023-04-08T13:38:58;13.70;63.70
6468;DHT22;3267;48.794;9.928;2023-04-08T13:41:24;13.10;63.30
6468;DHT22;3267;48.794;9.928;2023-04-08T13:43:49;13.10;63.30
6468;DHT22;3267;48.794;9.928;2023-04-08T13:46:15;13.10;63.20
6468;DHT22;3267;48.794;9.928;2023-04-08T13:48:41;13.10;63.30
6468;DHT22;3267;48.794;9.928;2023-04-08T13:51:06;13.10;63.50
6468;DHT22;3267;48.794;9.928;2023-04-08T13:53:32;13.10;63.50
6468;DHT22;3267;48.794;9.928;2023-04-08T13:55:58;13.10;63.60
6468;DHT22;3267;48.794;9.928;2023-04-08T13:58:24;14.50;65.10
6468;DHT22;3267;48.794;9.928;2023-04-08T14:00:50;13.10;63.70
6468;DHT22;3267;48.794;9.928;2023-04-08T14:03:16;14.90;65.50
6468;DHT22;3267;48.794;9.928;2023-04-08T14:05:44;13.00;63.70
6468;DHT22;3267;48.794;9.928;2023-04-08T14:08:10;13.00;63.70
6468;DHT22;3267;48.794;9.928;2023-04-08T14:10:38;13.00;63.80
6468;DHT22;3267;48.794;9.928;2023-04-08T14:13:03;13.00;63.90
6468;DHT22;3267;48.794;9.928;2023-04-08T14:15:29;12.90;63.90
6468;DHT22;3267;48.794;9.928;2023-04-08T14:17:55;14.60;65.80
6468;DHT22;3267;48.794;9.928;2023-04-08T14:20:21;12.90;64.10
6468;DHT22;3267;48.794;9.928;2023-04-08T14:22:47;13.00;64.20
6468;DHT22;3267;48.794;9.928;2023-04-08T14:25:12;13.60;64.70
6468;DHT22;3267;48.794;9.928;2023-04-08T14:27:38;13.00;64.10
6468;DHT22;3267;48.794;9.928;2023-04-08T14:30:04;13.00;64.10
6468;DHT22;3267;48.794;9.928;2023-04-08T14:32:30;13.00;64.20
6468;DHT22;3267;48.794;9.928;2023-04-08T14:34:56;14.90;66.20
6468;DHT22;3267;48.794;9.928;2023-04-08T14:37:22;12.90;64.20
6468;DHT22;3267;48.794;9.928;2023-04-08T14:39:50;13.60;65.00
6468;DHT22;3267;48.794;9.928;2023-04-08T14:42:16;12.90;64.00
6468;DHT22;3267;48.794;9.928;2023-04-08T14:44:42;12.90;64.20
6468;DHT22;3267;48.794;9.928;2023-04-08T14:47:08;13.10;64.70
6468;DHT22;3267;48.794;9.928;2023-04-08T14:49:34;14.20;65.90
6468;DHT22;3267;48.794;9.928;2023-04-08T14:52:00;12.90;64.50
6468;DHT22;3267;48.794;9.928;2023-04-08T14:54:26;14.30;66.00
6468;DHT22;3267;48.794;9.928;2023-04-08T14:56:52;12.90;64.70
6468;DHT22;3267;48.794;9.928;2023-04-08T14:59:18;13.00;64.80
6468;DHT22;3267;48.794;9.928;2023-04-08T15:01:44;13.00;64.70
6468;DHT22;3267;48.794;9.928;2023-04-08T15:04:10;13.00;64.80
6468;DHT22;3267;48.794;9.928;2023-04-08T15:06:35;13.60;65.30
6468;DHT22;3267;48.794;9.928;2023-04-08T15:09:03;13.10;64.80
6468;DHT22;3267;48.794;9.928;2023-04-08T15:11:29;13.10;64.90
6468;DHT22;3267;48.794;9.928;2023-04-08T15:13:54;13.10;64.90
6468;DHT22;3267;48.794;9.928;2023-04-08T15:16:20;13.20;64.90
6468;DHT22;3267;48.794;9.928;2023-04-08T15:18:46;14.30;65.90
6468;DHT22;3267;48.794;9.928;2023-04-08T15:21:11;13.10;64.80
6468;DHT22;3267;48.794;9.928;2023-04-08T15:23:37;13.10;64.80
6468;DHT22;3267;48.794;9.928;2023-04-08T15:26:07;13.10;64.90
6468;DHT22;3267;48.794;9.928;2023-04-08T15:28:32;13.20;65.20
6468;DHT22;3267;48.794;9.928;2023-04-08T15:30:58;13.20;65.10
6468;DHT22;3267;48.794;9.928;2023-04-08T15:33:24;13.10;65.10
6468;DHT22;3267;48.794;9.928;2023-04-08T15:35:50;13.00;64.80
6468;DHT22;3267;48.794;9.928;2023-04-08T15:38:16;13.10;65.10
6468;DHT22;3267;48.794;9.928;2023-04-08T15:40:42;12.90;64.90
6468;DHT22;3267;48.794;9.928;2023-04-08T15:43:08;12.90;65.20
6468;DHT22;3267;48.794;9.928;2023-04-08T15:45:35;12.80;65.10
6468;DHT22;3267;48.794;9.928;2023-04-08T15:48:03;12.80;65.10
6468;DHT22;3267;48.794;9.928;2023-04-08T15:50:29;12.70;65.00
6468;DHT22;3267;48.794;9.928;2023-04-08T15:52:55;12.70;65.30
6468;DHT22;3267;48.794;9.928;2023-04-08T15:55:21;12.60;65.40
6468;DHT22;3267;48.794;9.928;2023-04-08T15:57:47;12.60;65.50
6468;DHT22;3267;48.794;9.928;2023-04-08T16:00:13;12.50;65.60
6468;DHT22;3267;48.794;9.928;2023-04-08T16:02:39;12.50;65.80
6468;DHT22;3267;48.794;9.928;2023-04-08T16:05:05;12.40;66.00
6468;DHT22;3267;48.794;9.928;2023-04-08T16:07:30;12.40;66.20
6468;DHT22;3267;48.794;9.928;2023-04-08T16:09:56;12.80;66.80
6468;DHT22;3267;48.794;9.928;2023-04-08T16:12:23;12.30;66.40
6468;DHT22;3267;48.794;9.928;2023-04-08T16:14:49;12.30;66.50
6468;DHT22;3267;48.794;9.928;2023-04-08T16:17:15;12.30;66.60
6468;DHT22;3267;48.794;9.928;2023-04-08T16:19:41;12.30;66.60
6468;DHT22;3267;48.794;9.928;2023-04-08T16:22:07;12.30;66.70
6468;DHT22;3267;48.794;9.928;2023-04-08T16:24:36;12.20;66.60
6468;DHT22;3267;48.794;9.928;2023-04-08T16:27:01;12.20;66.70
6468;DHT22;3267;48.794;9.928;2023-04-08T16:29:27;12.30;66.80
6468;DHT22;3267;48.794;9.928;2023-04-08T16:31:53;12.30;67.50
6468;DHT22;3267;48.794;9.928;2023-04-08T16:34:18;12.30;66.70
6468;DHT22;3267;48.794;9.928;2023-04-08T16:36:44;12.30;66.80
6468;DHT22;3267;48.794;9.928;2023-04-08T16:39:10;12.30;66.70
6468;DHT22;3267;48.794;9.928;2023-04-08T16:41:35;12.30;66.80
6468;DHT22;3267;48.794;9.928;2023-04-08T16:44:01;12.30;66.80
6468;DHT22;3267;48.794;9.928;2023-04-08T16:46:27;12.40;66.90
6468;DHT22;3267;48.794;9.928;2023-04-08T16:48:53;12.30;66.80
6468;DHT22;3267;48.794;9.928;2023-04-08T16:51:18;12.30;66.70
6468;DHT22;3267;48.794;9.928;2023-04-08T16:53:44;14.50;69.00
6468;DHT22;3267;48.794;9.928;2023-04-08T16:56:13;12.60;67.20
6468;DHT22;3267;48.794;9.928;2023-04-08T16:58:40;12.20;66.70
6468;DHT22;3267;48.794;9.928;2023-04-08T17:01:06;12.20;66.80
6468;DHT22;3267;48.794;9.928;2023-04-08T17:03:33;12.20;66.70
6468;DHT22;3267;48.794;9.928;2023-04-08T17:06:09;12.20;66.70
6468;DHT22;3267;48.794;9.928;2023-04-08T17:08:36;12.20;66.60
6468;DHT22;3267;48.794;9.928;2023-04-08T17:11:11;12.20;66.70
6468;DHT22;3267;48.794;9.928;2023-04-08T17:13:38;12.10;66.50
6468;DHT22;3267;48.794;9.928;2023-04-08T17:16:04;12.60;67.20
6468;DHT22;3267;48.794;9.928;2023-04-08T17:18:30;12.10;66.60
6468;DHT22;3267;48.794;9.928;2023-04-08T17:20:56;13.90;68.50
6468;DHT22;3267;48.794;9.928;2023-04-08T17:23:22;12.10;66.70
6468;DHT22;3267;48.794;9.928;2023-04-08T17:25:47;12.10;66.70
6468;DHT22;3267;48.794;9.928;2023-04-08T17:28:14;12.50;67.10
6468;DHT22;3267;48.794;9.928;2023-04-08T17:30:39;12.10;66.70
6468;DHT22;3267;48.794;9.928;2023-04-08T17:33:05;12.00;66.70
6468;DHT22;3267;48.794;9.928;2023-04-08T17:35:31;12.00;66.70
6468;DHT22;3267;48.794;9.928;2023-04-08T17:37:57;12.00;66.60
6468;DHT22;3267;48.794;9.928;2023-04-08T17:40:22;12.60;67.30
6468;DHT22;3267;48.794;9.928;2023-04-08T17:42:48;12.00;66.70
6468;DHT22;3267;48.794;9.928;2023-04-08T17:45:14;12.00;66.70
6468;DHT22;3267;48.794;9.928;2023-04-08T17:47:41;12.00;66.90
6468;DHT22;3267;48.794;9.928;2023-04-08T17:50:07;11.90;66.80
6468;DHT22;3267;48.794;9.928;2023-04-08T17:52:33;11.90;66.80
6468;DHT22;3267;48.794;9.928;2023-04-08T17:54:59;11.90;66.80
6468;DHT22;3267;48.794;9.928;2023-04-08T17:57:25;11.90;66.80
6468;DHT22;3267;48.794;9.928;2023-04-08T17:59:51;11.90;66.80
6468;DHT22;3267;48.794;9.928;2023-04-08T18:02:17;11.90;66.80
6468;DHT22;3267;48.794;9.928;2023-04-08T18:04:42;11.90;66.80
6468;DHT22;3267;48.794;9.928;2023-04-08T18:07:10;11.80;66.70
6468;DHT22;3267;48.794;9.928;2023-04-08T18:09:35;11.80;66.70
6468;DHT22;3267;48.794;9.928;2023-04-08T18:12:01;11.80;66.70
6468;DHT22;3267;48.794;9.928;2023-04-08T18:14:27;11.80;66.70
6468;DHT22;3267;48.794;9.928;2023-04-08T18:16:53;11.80;66.80
6468;DHT22;3267;48.794;9.928;2023-04-08T18:19:19;11.80;66.70
6468;DHT22;3267;48.794;9.928;2023-04-08T18:21:44;11.80;66.80
6468;DHT22;3267;48.794;9.928;2023-04-08T18:24:10;11.80;66.70
6468;DHT22;3267;48.794;9.928;2023-04-08T18:26:36;11.80;66.80
6468;DHT22;3267;48.794;9.928;2023-04-08T18:29:01;11.80;66.70
6468;DHT22;3267;48.794;9.928;2023-04-08T18:31:27;11.80;66.80
6468;DHT22;3267;48.794;9.928;2023-04-08T18:33:52;11.80;66.80
6468;DHT22;3267;48.794;9.928;2023-04-08T18:36:18;11.80;66.80
6468;DHT22;3267;48.794;9.928;2023-04-08T18:38:44;12.20;67.20
6468;DHT22;3267;48.794;9.928;2023-04-08T18:41:09;11.80;66.80
6468;DHT22;3267;48.794;9.928;2023-04-08T18:43:36;11.70;66.70
6468;DHT22;3267;48.794;9.928;2023-04-08T18:46:01;11.70;66.80
6468;DHT22;3267;48.794;9.928;2023-04-08T18:48:27;11.70;66.80
6468;DHT22;3267;48.794;9.928;2023-04-08T18:50:53;11.70;66.90
6468;DHT22;3267;48.794;9.928;2023-04-08T18:53:18;11.70;66.90
6468;DHT22;3267;48.794;9.928;2023-04-08T18:55:44;11.60;66.80
6468;DHT22;3267;48.794;9.928;2023-04-08T18:58:10;11.60;66.80
6468;DHT22;3267;48.794;9.928;2023-04-08T19:00:36;11.70;66.90
6468;DHT22;3267;48.794;9.928;2023-04-08T19:03:06;11.60;67.50
6468;DHT22;3267;48.794;9.928;2023-04-08T19:05:34;11.60;66.80
6468;DHT22;3267;48.794;9.928;2023-04-08T19:08:00;11.70;66.80
6468;DHT22;3267;48.794;9.928;2023-04-08T19:10:30;11.60;66.80
6468;DHT22;3267;48.794;9.928;2023-04-08T19:12:56;11.60;66.80
6468;DHT22;3267;48.794;9.928;2023-04-08T19:15:22;12.40;67.70
6468;DHT22;3267;48.794;9.928;2023-04-08T19:17:47;11.60;66.90
6468;DHT22;3267;48.794;9.928;2023-04-08T19:20:13;11.60;66.90
6468;DHT22;3267;48.794;9.928;2023-04-08T19:22:38;11.60;66.90
6468;DHT22;3267;48.794;9.928;2023-04-08T19:25:05;11.50;66.90
6468;DHT22;3267;48.794;9.928;2023-04-08T19:27:31;11.50;66.90
6468;DHT22;3267;48.794;9.928;2023-04-08T19:29:57;11.50;67.00
6468;DHT22;3267;48.794;9.928;2023-04-08T19:32:23;11.50;67.00
6468;DHT22;3267;48.794;9.928;2023-04-08T19:34:48;11.50;66.90
6468;DHT22;3267;48.794;9.928;2023-04-08T19:37:14;12.90;68.40
6468;DHT22;3267;48.794;9.928;2023-04-08T19:39:40;11.50;67.10
6468;DHT22;3267;48.794;9.928;2023-04-08T19:42:05;13.60;69.40
6468;DHT22;3267;48.794;9.928;2023-04-08T19:44:31;11.40;67.10
6468;DHT22;3267;48.794;9.928;2023-04-08T19:46:57;11.50;67.20
6468;DHT22;3267;48.794;9.928;2023-04-08T19:49:23;11.40;67.10
6468;DHT22;3267;48.794;9.928;2023-04-08T19:51:49;11.40;67.10
6468;DHT22;3267;48.794;9.928;2023-04-08T19:54:16;11.40;67.20
6468;DHT22;3267;48.794;9.928;2023-04-08T19:56:42;11.40;67.20
6468;DHT22;3267;48.794;9.928;2023-04-08T19:59:08;11.50;67.30
6468;DHT22;3267;48.794;9.928;2023-04-08T20:01:35;11.50;67.20
6468;DHT22;3267;48.794;9.928;2023-04-08T20:04:02;11.50;67.20
6468;DHT22;3267;48.794;9.928;2023-04-08T20:06:28;11.50;67.20
6468;DHT22;3267;48.794;9.928;2023-04-08T20:08:56;11.50;67.00
6468;DHT22;3267;48.794;9.928;2023-04-08T20:11:30;11.50;67.10
6468;DHT22;3267;48.794;9.928;2023-04-08T20:13:55;11.50;67.20
6468;DHT22;3267;48.794;9.928;2023-04-08T20:16:21;13.60;69.20
6468;DHT22;3267;48.794;9.928;2023-04-08T20:18:47;11.50;66.90
6468;DHT22;3267;48.794;9.928;2023-04-08T20:21:12;11.50;67.10